sensor_id;sensor_type;location;lat;lon;timestamp;temperature;humidity
30047;DHT22;16878;52.542;13.426;2022-07-04T00:02:14;22.80;86.30
30047;DHT22;16878;52.542;13.426;2022-07-04T00:04:39;22.80;86.90
30047;DHT22;16878;52.542;13.426;2022-07-04T00:07:05;22.80;87.80
30047;DHT22;16878;52.542;13.426;2022-07-04T00:09:30;22.80;88.30
30047;DHT22;16878;52.542;13.426;2022-07-04T00:11:56;22.80;88.90
30047;DHT22;16878;52.542;13.426;2022-07-04T00:14:21;22.80;89.60
30047;DHT22;16878;52.542;13.426;2022-07-04T00:16:47;22.70;90.10
30047;DHT22;16878;52.542;13.426;2022-07-04T00:19:12;22.70;90.30
30047;DHT22;16878;52.542;13.426;2022-07-04T00:21:38;22.60;90.60
30047;DHT22;16878;52.542;13.426;2022-07-04T00:24:03;22.60;91.00
30047;DHT22;16878;52.542;13.426;2022-07-04T00:26:29;22.50;91.50
30047;DHT22;16878;52.542;13.426;2022-07-04T00:28:55;22.40;92.00
30047;DHT22;16878;52.542;13.426;2022-07-04T00:31:20;22.30;92.50
30047;DHT22;16878;52.542;13.426;2022-07-04T00:33:46;22.30;93.00
30047;DHT22;16878;52.542;13.426;2022-07-04T00:36:11;22.30;93.30
30047;DHT22;16878;52.542;13.426;2022-07-04T00:38:37;22.20;93.70
30047;DHT22;16878;52.542;13.426;2022-07-04T00:41:03;22.20;94.00
30047;DHT22;16878;52.542;13.426;2022-07-04T00:43:28;22.20;94.30
30047;DHT22;16878;52.542;13.426;2022-07-04T00:45:54;22.10;94.70
30047;DHT22;16878;52.542;13.426;2022-07-04T00:48:19;22.10;94.80
30047;DHT22;16878;52.542;13.426;2022-07-04T00:50:45;22.10;95.20
30047;DHT22;16878;52.542;13.426;2022-07-04T00:53:14;22.00;95.30
30047;DHT22;16878;52.542;13.426;2022-07-04T00:55:40;22.00;95.60
30047;DHT22;16878;52.542;13.426;2022-07-04T00:58:06;22.00;95.80
30047;DHT22;16878;52.542;13.426;2022-07-04T01:00:32;21.90;96.10
30047;DHT22;16878;52.542;13.426;2022-07-04T01:02:58;21.90;96.20
30047;DHT22;16878;52.542;13.426;2022-07-04T01:05:24;21.90;96.30
30047;DHT22;16878;52.542;13.426;2022-07-04T01:07:50;21.80;96.60
30047;DHT22;16878;52.542;13.426;2022-07-04T01:10:15;21.80;96.90
30047;DHT22;16878;52.542;13.426;2022-07-04T01:12:41;21.80;97.20
30047;DHT22;16878;52.542;13.426;2022-07-04T01:15:07;21.70;97.50
30047;DHT22;16878;52.542;13.426;2022-07-04T01:17:33;21.60;97.90
30047;DHT22;16878;52.542;13.426;2022-07-04T01:19:58;21.60;98.20
30047;DHT22;16878;52.542;13.426;2022-07-04T01:22:24;21.50;98.70
30047;DHT22;16878;52.542;13.426;2022-07-04T01:24:50;21.50;99.00
30047;DHT22;16878;52.542;13.426;2022-07-04T01:27:15;21.50;99.50
30047;DHT22;16878;52.542;13.426;2022-07-04T01:29:41;21.40;99.90
30047;DHT22;16878;52.542;13.426;2022-07-04T01:32:07;21.40;99.90
30047;DHT22;16878;52.542;13.426;2022-07-04T01:34:33;21.30;99.90
30047;DHT22;16878;52.542;13.426;2022-07-04T01:36:59;21.30;99.90
30047;DHT22;16878;52.542;13.426;2022-07-04T01:39:26;21.30;99.90
30047;DHT22;16878;52.542;13.426;2022-07-04T01:41:51;21.20;99.90
30047;DHT22;16878;52.542;13.426;2022-07-04T01:44:17;21.20;99.90
30047;DHT22;16878;52.542;13.426;2022-07-04T01:46:42;21.20;99.90
30047;DHT22;16878;52.542;13.426;2022-07-04T01:49:08;21.20;99.90
30047;DHT22;16878;52.542;13.426;2022-07-04T01:51:34;21.10;99.90
30047;DHT22;16878;52.542;13.426;2022-07-04T01:53:59;21.00;99.90
30047;DHT22;16878;52.542;13.426;2022-07-04T01:56:25;21.00;99.90
30047;DHT22;16878;52.542;13.426;2022-07-04T01:58:50;20.90;99.90
30047;DHT22;16878;52.542;13.426;2022-07-04T02:01:16;20.90;99.90
30047;DHT22;16878;52.542;13.426;2022-07-04T02:04:03;20.90;99.90
30047;DHT22;16878;52.542;13.426;2022-07-04T02:06:29;20.90;99.90
30047;DHT22;16878;52.542;13.426;2022-07-04T02:08:55;20.80;99.90
30047;DHT22;16878;52.542;13.426;2022-07-04T02:11:39;20.80;99.90
30047;DHT22;16878;52.542;13.426;2022-07-04T02:14:23;20.80;99.90
30047;DHT22;16878;52.542;13.426;2022-07-04T02:16:48;20.70;99.90
30047;DHT22;16878;52.542;13.426;2022-07-04T02:19:14;20.70;99.90
30047;DHT22;16878;52.542;13.426;2022-07-04T02:21:40;20.60;99.90
30047;DHT22;16878;52.542;13.426;2022-07-04T02:24:05;20.60;99.90
30047;DHT22;16878;52.542;13.426;2022-07-04T02:26:31;20.60;99.90
30047;DHT22;16878;52.542;13.426;2022-07-04T02:28:57;20.60;99.90
30047;DHT22;16878;52.542;13.426;2022-07-04T02:31:22;20.50;99.90
30047;DHT22;16878;52.542;13.426;2022-07-04T02:33:48;20.40;99.90
30047;DHT22;16878;52.542;13.426;2022-07-04T02:36:14;20.40;99.90
30047;DHT22;16878;52.542;13.426;2022-07-04T02:38:39;20.30;99.90
30047;DHT22;16878;52.542;13.426;2022-07-04T02:41:05;20.30;99.90
30047;DHT22;16878;52.542;13.426;2022-07-04T02:43:30;20.30;99.90
30047;DHT22;16878;52.542;13.426;2022-07-04T02:45:56;20.20;99.90
30047;DHT22;16878;52.542;13.426;2022-07-04T02:48:21;20.20;99.90
30047;DHT22;16878;52.542;13.426;2022-07-04T02:50:47;20.20;99.90
30047;DHT22;16878;52.542;13.426;2022-07-04T02:53:12;20.10;99.90
30047;DHT22;16878;52.542;13.426;2022-07-04T02:55:38;20.10;99.90
30047;DHT22;16878;52.542;13.426;2022-07-04T02:58:04;20.10;99.90
30047;DHT22;16878;52.542;13.426;2022-07-04T03:00:29;20.00;99.90
30047;DHT22;16878;52.542;13.426;2022-07-04T03:02:55;20.00;99.90
30047;DHT22;16878;52.542;13.426;2022-07-04T03:05:20;20.00;99.90
30047;DHT22;16878;52.542;13.426;2022-07-04T03:07:46;20.00;99.90
30047;DHT22;16878;52.542;13.426;2022-07-04T03:10:11;20.00;99.90
30047;DHT22;16878;52.542;13.426;2022-07-04T03:12:37;20.00;99.90
30047;DHT22;16878;52.542;13.426;2022-07-04T03:15:03;19.90;99.90
30047;DHT22;16878;52.542;13.426;2022-07-04T03:17:28;19.90;99.90
30047;DHT22;16878;52.542;13.426;2022-07-04T03:19:56;19.90;99.90
30047;DHT22;16878;52.542;13.426;2022-07-04T03:22:21;19.90;99.90
30047;DHT22;16878;52.542;13.426;2022-07-04T03:24:47;19.90;99.90
30047;DHT22;16878;52.542;13.426;2022-07-04T03:27:12;19.90;99.90
30047;DHT22;16878;52.542;13.426;2022-07-04T03:29:38;19.90;99.90
30047;DHT22;16878;52.542;13.426;2022-07-04T03:32:04;19.90;99.90
30047;DHT22;16878;52.542;13.426;2022-07-04T03:34:29;19.90;99.90
30047;DHT22;16878;52.542;13.426;2022-07-04T03:36:55;19.90;99.90
30047;DHT22;16878;52.542;13.426;2022-07-04T03:39:21;20.00;99.90
30047;DHT22;16878;52.542;13.426;2022-07-04T03:41:47;20.00;99.90
30047;DHT22;16878;52.542;13.426;2022-07-04T03:44:12;20.00;99.90
30047;DHT22;16878;52.542;13.426;2022-07-04T03:46:38;20.10;99.90
30047;DHT22;16878;52.542;13.426;2022-07-04T03:49:03;20.10;99.90
30047;DHT22;16878;52.542;13.426;2022-07-04T03:51:29;20.20;99.90
30047;DHT22;16878;52.542;13.426;2022-07-04T03:53:54;20.20;99.90
30047;DHT22;16878;52.542;13.426;2022-07-04T03:56:20;20.20;99.90
30047;DHT22;16878;52.542;13.426;2022-07-04T03:58:45;20.20;99.90
30047;DHT22;16878;52.542;13.426;2022-07-04T04:01:20;20.20;99.90
30047;DHT22;16878;52.542;13.426;2022-07-04T04:03:45;20.10;99.90
30047;DHT22;16878;52.542;13.426;2022-07-04T04:06:30;20.20;99.90
30047;DHT22;16878;52.542;13.426;2022-07-04T04:08:56;20.20;99.90
30047;DHT22;16878;52.542;13.426;2022-07-04T04:11:21;20.30;99.90
30047;DHT22;16878;52.542;13.426;2022-07-04T04:13:47;20.20;99.90
30047;DHT22;16878;52.542;13.426;2022-07-04T04:16:13;20.30;99.90
30047;DHT22;16878;52.542;13.426;2022-07-04T04:18:38;20.30;99.90
30047;DHT22;16878;52.542;13.426;2022-07-04T04:21:04;20.30;99.90
30047;DHT22;16878;52.542;13.426;2022-07-04T04:23:30;20.20;99.90
30047;DHT22;16878;52.542;13.426;2022-07-04T04:25:55;20.30;99.90
30047;DHT22;16878;52.542;13.426;2022-07-04T04:28:21;20.30;99.90
30047;DHT22;16878;52.542;13.426;2022-07-04T04:30:47;20.40;99.90
30047;DHT22;16878;52.542;13.426;2022-07-04T04:33:12;20.50;99.90
30047;DHT22;16878;52.542;13.426;2022-07-04T04:35:38;20.60;99.90
30047;DHT22;16878;52.542;13.426;2022-07-04T04:38:03;20.70;99.90
30047;DHT22;16878;52.542;13.426;2022-07-04T04:40:29;20.90;99.90
30047;DHT22;16878;52.542;13.426;2022-07-04T04:42:55;21.10;99.90
30047;DHT22;16878;52.542;13.426;2022-07-04T04:45:21;21.20;99.90
30047;DHT22;16878;52.542;13.426;2022-07-04T04:47:46;21.30;99.90
30047;DHT22;16878;52.542;13.426;2022-07-04T04:50:12;21.50;99.90
30047;DHT22;16878;52.542;13.426;2022-07-04T04:52:40;22.70;99.90
30047;DHT22;16878;52.542;13.426;2022-07-04T04:55:06;24.80;99.90
30047;DHT22;16878;52.542;13.426;2022-07-04T04:59:57;27.60;97.20
30047;DHT22;16878;52.542;13.426;2022-07-04T05:02:23;28.10;93.90
30047;DHT22;16878;52.542;13.426;2022-07-04T05:04:48;29.80;88.20
30047;DHT22;16878;52.542;13.426;2022-07-04T05:07:14;30.90;80.50
30047;DHT22;16878;52.542;13.426;2022-07-04T05:09:40;31.30;77.90
30047;DHT22;16878;52.542;13.426;2022-07-04T05:12:05;31.10;74.80
30047;DHT22;16878;52.542;13.426;2022-07-04T05:14:31;31.90;74.10
30047;DHT22;16878;52.542;13.426;2022-07-04T05:16:57;31.70;73.00
30047;DHT22;16878;52.542;13.426;2022-07-04T05:19:22;29.70;74.50
30047;DHT22;16878;52.542;13.426;2022-07-04T05:21:48;28.90;76.70
30047;DHT22;16878;52.542;13.426;2022-07-04T05:24:13;27.30;81.40
30047;DHT22;16878;52.542;13.426;2022-07-04T05:26:39;26.30;87.50
30047;DHT22;16878;52.542;13.426;2022-07-04T05:29:04;25.90;90.70
30047;DHT22;16878;52.542;13.426;2022-07-04T05:31:30;25.60;91.30
30047;DHT22;16878;52.542;13.426;2022-07-04T05:33:55;24.70;94.00
30047;DHT22;16878;52.542;13.426;2022-07-04T05:36:24;23.90;97.40
30047;DHT22;16878;52.542;13.426;2022-07-04T05:38:49;23.40;99.90
30047;DHT22;16878;52.542;13.426;2022-07-04T05:41:15;23.00;99.90
30047;DHT22;16878;52.542;13.426;2022-07-04T05:43:41;22.90;99.90
30047;DHT22;16878;52.542;13.426;2022-07-04T05:46:07;23.00;99.90
30047;DHT22;16878;52.542;13.426;2022-07-04T05:48:32;25.20;97.20
30047;DHT22;16878;52.542;13.426;2022-07-04T05:50:58;28.40;91.00
30047;DHT22;16878;52.542;13.426;2022-07-04T05:53:23;30.60;80.70
30047;DHT22;16878;52.542;13.426;2022-07-04T05:55:49;32.00;73.30
30047;DHT22;16878;52.542;13.426;2022-07-04T05:58:14;30.60;72.30
30047;DHT22;16878;52.542;13.426;2022-07-04T06:00:41;30.50;72.50
30047;DHT22;16878;52.542;13.426;2022-07-04T06:03:07;28.60;74.50
30047;DHT22;16878;52.542;13.426;2022-07-04T06:05:33;30.20;73.40
30047;DHT22;16878;52.542;13.426;2022-07-04T06:07:58;31.20;71.60
30047;DHT22;16878;52.542;13.426;2022-07-04T06:10:24;31.10;68.80
30047;DHT22;16878;52.542;13.426;2022-07-04T06:12:50;32.10;67.80
30047;DHT22;16878;52.542;13.426;2022-07-04T06:15:15;32.60;66.80
30047;DHT22;16878;52.542;13.426;2022-07-04T06:17:41;33.60;63.90
30047;DHT22;16878;52.542;13.426;2022-07-04T06:20:07;34.10;61.60
30047;DHT22;16878;52.542;13.426;2022-07-04T06:22:42;34.30;59.60
30047;DHT22;16878;52.542;13.426;2022-07-04T06:25:12;34.90;58.80
30047;DHT22;16878;52.542;13.426;2022-07-04T06:27:37;35.20;56.50
30047;DHT22;16878;52.542;13.426;2022-07-04T06:30:04;34.90;53.60
30047;DHT22;16878;52.542;13.426;2022-07-04T06:32:29;35.00;53.10
30047;DHT22;16878;52.542;13.426;2022-07-04T06:34:55;34.50;51.90
30047;DHT22;16878;52.542;13.426;2022-07-04T06:37:39;34.10;51.90
30047;DHT22;16878;52.542;13.426;2022-07-04T06:40:05;34.30;51.30
30047;DHT22;16878;52.542;13.426;2022-07-04T06:42:31;34.20;50.90
30047;DHT22;16878;52.542;13.426;2022-07-04T06:44:59;33.90;51.20
30047;DHT22;16878;52.542;13.426;2022-07-04T06:47:25;33.60;50.70
30047;DHT22;16878;52.542;13.426;2022-07-04T06:49:51;33.90;50.90
30047;DHT22;16878;52.542;13.426;2022-07-04T06:52:17;34.00;49.90
30047;DHT22;16878;52.542;13.426;2022-07-04T06:54:49;33.90;49.70
30047;DHT22;16878;52.542;13.426;2022-07-04T06:57:14;33.90;49.30
30047;DHT22;16878;52.542;13.426;2022-07-04T06:59:40;33.40;49.60
30047;DHT22;16878;52.542;13.426;2022-07-04T07:02:06;33.30;49.70
30047;DHT22;16878;52.542;13.426;2022-07-04T07:04:31;33.20;49.80
30047;DHT22;16878;52.542;13.426;2022-07-04T07:06:57;33.40;49.40
30047;DHT22;16878;52.542;13.426;2022-07-04T07:09:25;33.10;49.00
30047;DHT22;16878;52.542;13.426;2022-07-04T07:11:51;32.70;49.20
30047;DHT22;16878;52.542;13.426;2022-07-04T07:14:17;32.60;49.50
30047;DHT22;16878;52.542;13.426;2022-07-04T07:16:45;32.70;49.60
30047;DHT22;16878;52.542;13.426;2022-07-04T07:19:14;32.50;49.90
30047;DHT22;16878;52.542;13.426;2022-07-04T07:21:39;32.40;50.40
30047;DHT22;16878;52.542;13.426;2022-07-04T07:24:05;32.20;50.60
30047;DHT22;16878;52.542;13.426;2022-07-04T07:28:57;30.80;51.80
30047;DHT22;16878;52.542;13.426;2022-07-04T07:31:22;29.30;53.60
30047;DHT22;16878;52.542;13.426;2022-07-04T07:33:48;27.70;55.70
30047;DHT22;16878;52.542;13.426;2022-07-04T07:36:14;27.00;56.90
30047;DHT22;16878;52.542;13.426;2022-07-04T07:38:42;26.50;58.20
30047;DHT22;16878;52.542;13.426;2022-07-04T07:41:09;26.00;59.30
30047;DHT22;16878;52.542;13.426;2022-07-04T07:43:34;25.70;60.70
30047;DHT22;16878;52.542;13.426;2022-07-04T07:46:00;25.40;61.70
30047;DHT22;16878;52.542;13.426;2022-07-04T07:48:29;25.00;62.90
30047;DHT22;16878;52.542;13.426;2022-07-04T07:50:55;24.60;64.50
30047;DHT22;16878;52.542;13.426;2022-07-04T07:53:20;24.30;65.90
30047;DHT22;16878;52.542;13.426;2022-07-04T07:55:49;24.20;67.20
30047;DHT22;16878;52.542;13.426;2022-07-04T07:58:14;24.00;68.50
30047;DHT22;16878;52.542;13.426;2022-07-04T08:00:40;24.00;69.40
30047;DHT22;16878;52.542;13.426;2022-07-04T08:03:06;23.90;70.00
30047;DHT22;16878;52.542;13.426;2022-07-04T08:06:07;24.00;70.40
30047;DHT22;16878;52.542;13.426;2022-07-04T08:08:33;24.10;69.50
30047;DHT22;16878;52.542;13.426;2022-07-04T08:11:01;24.20;69.40
30047;DHT22;16878;52.542;13.426;2022-07-04T08:13:27;24.40;69.50
30047;DHT22;16878;52.542;13.426;2022-07-04T08:15:53;24.60;69.00
30047;DHT22;16878;52.542;13.426;2022-07-04T08:18:18;24.60;68.70
30047;DHT22;16878;52.542;13.426;2022-07-04T08:20:44;24.50;67.90
30047;DHT22;16878;52.542;13.426;2022-07-04T08:23:10;24.50;67.70
30047;DHT22;16878;52.542;13.426;2022-07-04T08:25:35;24.50;67.40
30047;DHT22;16878;52.542;13.426;2022-07-04T08:28:01;24.30;68.20
30047;DHT22;16878;52.542;13.426;2022-07-04T08:30:27;24.30;68.40
30047;DHT22;16878;52.542;13.426;2022-07-04T08:32:52;24.30;68.70
30047;DHT22;16878;52.542;13.426;2022-07-04T08:35:18;24.20;68.50
30047;DHT22;16878;52.542;13.426;2022-07-04T08:37:44;24.10;69.00
30047;DHT22;16878;52.542;13.426;2022-07-04T08:40:09;23.90;68.80
30047;DHT22;16878;52.542;13.426;2022-07-04T08:42:37;23.70;69.70
30047;DHT22;16878;52.542;13.426;2022-07-04T08:45:09;23.60;69.90
30047;DHT22;16878;52.542;13.426;2022-07-04T08:47:38;23.60;70.40
30047;DHT22;16878;52.542;13.426;2022-07-04T08:50:18;23.60;70.20
30047;DHT22;16878;52.542;13.426;2022-07-04T08:52:47;23.70;70.30
30047;DHT22;16878;52.542;13.426;2022-07-04T08:55:16;23.80;70.00
30047;DHT22;16878;52.542;13.426;2022-07-04T08:58:00;23.70;70.50
30047;DHT22;16878;52.542;13.426;2022-07-04T09:00:46;23.70;71.30
30047;DHT22;16878;52.542;13.426;2022-07-04T09:03:11;23.70;72.30
30047;DHT22;16878;52.542;13.426;2022-07-04T09:05:37;23.80;71.70
30047;DHT22;16878;52.542;13.426;2022-07-04T09:08:03;23.70;69.50
30047;DHT22;16878;52.542;13.426;2022-07-04T09:10:29;23.80;69.50
30047;DHT22;16878;52.542;13.426;2022-07-04T09:12:54;23.90;69.80
30047;DHT22;16878;52.542;13.426;2022-07-04T09:15:20;23.80;69.30
30047;DHT22;16878;52.542;13.426;2022-07-04T09:17:46;23.70;70.40
30047;DHT22;16878;52.542;13.426;2022-07-04T09:22:38;23.60;71.50
30047;DHT22;16878;52.542;13.426;2022-07-04T09:25:04;23.70;71.40
30047;DHT22;16878;52.542;13.426;2022-07-04T09:27:37;23.80;71.70
30047;DHT22;16878;52.542;13.426;2022-07-04T09:30:05;23.70;72.10
30047;DHT22;16878;52.542;13.426;2022-07-04T09:32:40;23.80;72.50
30047;DHT22;16878;52.542;13.426;2022-07-04T09:35:07;23.80;70.70
30047;DHT22;16878;52.542;13.426;2022-07-04T09:37:34;23.90;69.60
30047;DHT22;16878;52.542;13.426;2022-07-04T09:40:01;23.80;69.50
30047;DHT22;16878;52.542;13.426;2022-07-04T09:42:33;23.90;68.90
30047;DHT22;16878;52.542;13.426;2022-07-04T09:45:03;24.00;69.00
30047;DHT22;16878;52.542;13.426;2022-07-04T09:47:29;24.20;68.20
30047;DHT22;16878;52.542;13.426;2022-07-04T09:50:04;24.30;67.60
30047;DHT22;16878;52.542;13.426;2022-07-04T09:52:31;24.30;66.10
30047;DHT22;16878;52.542;13.426;2022-07-04T09:54:58;24.20;66.10
30047;DHT22;16878;52.542;13.426;2022-07-04T09:57:24;24.10;67.30
30047;DHT22;16878;52.542;13.426;2022-07-04T09:59:53;24.20;67.30
30047;DHT22;16878;52.542;13.426;2022-07-04T10:02:20;24.40;67.30
30047;DHT22;16878;52.542;13.426;2022-07-04T10:04:49;24.50;66.80
30047;DHT22;16878;52.542;13.426;2022-07-04T10:07:30;24.40;64.50
30047;DHT22;16878;52.542;13.426;2022-07-04T10:09:56;24.40;64.90
30047;DHT22;16878;52.542;13.426;2022-07-04T10:12:25;24.60;65.00
30047;DHT22;16878;52.542;13.426;2022-07-04T10:14:51;24.70;64.70
30047;DHT22;16878;52.542;13.426;2022-07-04T10:17:18;24.80;64.20
30047;DHT22;16878;52.542;13.426;2022-07-04T10:19:46;24.70;64.40
30047;DHT22;16878;52.542;13.426;2022-07-04T10:22:16;24.70;63.70
30047;DHT22;16878;52.542;13.426;2022-07-04T10:24:43;24.60;63.40
30047;DHT22;16878;52.542;13.426;2022-07-04T10:27:09;24.70;63.40
30047;DHT22;16878;52.542;13.426;2022-07-04T10:29:34;24.80;63.10
30047;DHT22;16878;52.542;13.426;2022-07-04T10:32:00;25.00;63.00
30047;DHT22;16878;52.542;13.426;2022-07-04T10:34:26;25.30;62.30
30047;DHT22;16878;52.542;13.426;2022-07-04T10:36:55;25.50;62.00
30047;DHT22;16878;52.542;13.426;2022-07-04T10:39:22;25.60;61.80
30047;DHT22;16878;52.542;13.426;2022-07-04T10:41:58;25.60;61.80
30047;DHT22;16878;52.542;13.426;2022-07-04T10:44:24;25.60;61.30
30047;DHT22;16878;52.542;13.426;2022-07-04T10:46:51;25.30;61.20
30047;DHT22;16878;52.542;13.426;2022-07-04T10:49:18;25.00;61.60
30047;DHT22;16878;52.542;13.426;2022-07-04T10:51:48;25.00;62.00
30047;DHT22;16878;52.542;13.426;2022-07-04T10:59:40;25.00;62.50
30047;DHT22;16878;52.542;13.426;2022-07-04T11:07:17;25.20;62.40
30047;DHT22;16878;52.542;13.426;2022-07-04T11:09:44;25.10;62.30
30047;DHT22;16878;52.542;13.426;2022-07-04T11:12:10;25.10;63.10
30047;DHT22;16878;52.542;13.426;2022-07-04T11:17:11;25.10;63.90
30047;DHT22;16878;52.542;13.426;2022-07-04T11:19:38;25.20;63.50
30047;DHT22;16878;52.542;13.426;2022-07-04T11:22:04;25.10;63.00
30047;DHT22;16878;52.542;13.426;2022-07-04T11:24:34;25.10;63.10
30047;DHT22;16878;52.542;13.426;2022-07-04T11:27:00;25.00;63.30
30047;DHT22;16878;52.542;13.426;2022-07-04T11:29:26;24.90;63.20
30047;DHT22;16878;52.542;13.426;2022-07-04T11:31:52;24.80;63.50
30047;DHT22;16878;52.542;13.426;2022-07-04T11:34:18;24.70;63.60
30047;DHT22;16878;52.542;13.426;2022-07-04T11:36:45;24.70;63.90
30047;DHT22;16878;52.542;13.426;2022-07-04T11:39:12;24.80;63.30
30047;DHT22;16878;52.542;13.426;2022-07-04T11:41:39;25.00;63.00
30047;DHT22;16878;52.542;13.426;2022-07-04T11:44:24;25.10;62.00
30047;DHT22;16878;52.542;13.426;2022-07-04T11:47:09;25.00;62.20
30047;DHT22;16878;52.542;13.426;2022-07-04T11:49:35;24.90;62.10
30047;DHT22;16878;52.542;13.426;2022-07-04T11:52:01;24.90;62.30
30047;DHT22;16878;52.542;13.426;2022-07-04T11:54:27;24.90;62.50
30047;DHT22;16878;52.542;13.426;2022-07-04T11:57:07;24.90;62.40
30047;DHT22;16878;52.542;13.426;2022-07-04T11:59:33;25.00;62.00
30047;DHT22;16878;52.542;13.426;2022-07-04T12:01:58;25.00;61.80
30047;DHT22;16878;52.542;13.426;2022-07-04T12:04:34;24.90;62.60
30047;DHT22;16878;52.542;13.426;2022-07-04T12:07:04;24.80;62.40
30047;DHT22;16878;52.542;13.426;2022-07-04T12:09:33;24.70;61.50
30047;DHT22;16878;52.542;13.426;2022-07-04T12:11:58;24.50;62.80
30047;DHT22;16878;52.542;13.426;2022-07-04T12:14:25;24.30;62.70
30047;DHT22;16878;52.542;13.426;2022-07-04T12:17:11;24.10;63.40
30047;DHT22;16878;52.542;13.426;2022-07-04T12:19:36;24.10;63.60
30047;DHT22;16878;52.542;13.426;2022-07-04T12:22:02;24.20;63.40
30047;DHT22;16878;52.542;13.426;2022-07-04T12:24:28;24.30;63.30
30047;DHT22;16878;52.542;13.426;2022-07-04T12:26:53;24.40;62.20
30047;DHT22;16878;52.542;13.426;2022-07-04T12:29:22;24.50;62.30
30047;DHT22;16878;52.542;13.426;2022-07-04T12:31:50;24.60;61.70
30047;DHT22;16878;52.542;13.426;2022-07-04T12:34:16;24.90;61.50
30047;DHT22;16878;52.542;13.426;2022-07-04T12:36:51;25.00;61.20
30047;DHT22;16878;52.542;13.426;2022-07-04T12:39:33;25.00;61.10
30047;DHT22;16878;52.542;13.426;2022-07-04T12:42:16;25.00;61.20
30047;DHT22;16878;52.542;13.426;2022-07-04T12:44:43;25.10;60.50
30047;DHT22;16878;52.542;13.426;2022-07-04T12:47:09;25.20;60.00
30047;DHT22;16878;52.542;13.426;2022-07-04T12:49:35;25.20;60.30
30047;DHT22;16878;52.542;13.426;2022-07-04T12:52:07;25.30;59.80
30047;DHT22;16878;52.542;13.426;2022-07-04T12:54:32;25.30;60.10
30047;DHT22;16878;52.542;13.426;2022-07-04T12:59:33;25.30;59.20
30047;DHT22;16878;52.542;13.426;2022-07-04T13:01:59;25.40;59.20
30047;DHT22;16878;52.542;13.426;2022-07-04T13:04:24;25.40;58.70
30047;DHT22;16878;52.542;13.426;2022-07-04T13:06:50;25.30;57.40
30047;DHT22;16878;52.542;13.426;2022-07-04T13:09:16;25.10;56.80
30047;DHT22;16878;52.542;13.426;2022-07-04T13:11:41;25.00;56.80
30047;DHT22;16878;52.542;13.426;2022-07-04T13:14:26;24.90;56.40
30047;DHT22;16878;52.542;13.426;2022-07-04T13:16:51;24.90;56.40
30047;DHT22;16878;52.542;13.426;2022-07-04T13:19:17;25.00;55.90
30047;DHT22;16878;52.542;13.426;2022-07-04T13:21:43;25.00;56.50
30047;DHT22;16878;52.542;13.426;2022-07-04T13:24:08;25.10;57.10
30047;DHT22;16878;52.542;13.426;2022-07-04T13:31:49;25.30;56.70
30047;DHT22;16878;52.542;13.426;2022-07-04T13:34:15;25.40;56.20
30047;DHT22;16878;52.542;13.426;2022-07-04T13:36:41;25.40;56.50
30047;DHT22;16878;52.542;13.426;2022-07-04T13:39:06;25.50;56.60
30047;DHT22;16878;52.542;13.426;2022-07-04T13:41:32;25.50;56.10
30047;DHT22;16878;52.542;13.426;2022-07-04T13:44:02;25.70;56.00
30047;DHT22;16878;52.542;13.426;2022-07-04T13:46:27;25.60;55.10
30047;DHT22;16878;52.542;13.426;2022-07-04T13:48:53;25.60;54.80
30047;DHT22;16878;52.542;13.426;2022-07-04T13:51:19;25.60;55.40
30047;DHT22;16878;52.542;13.426;2022-07-04T13:53:44;25.50;55.40
30047;DHT22;16878;52.542;13.426;2022-07-04T13:56:10;25.20;55.60
30047;DHT22;16878;52.542;13.426;2022-07-04T13:58:35;25.10;55.80
30047;DHT22;16878;52.542;13.426;2022-07-04T14:01:01;25.00;55.80
30047;DHT22;16878;52.542;13.426;2022-07-04T14:03:27;24.80;56.70
30047;DHT22;16878;52.542;13.426;2022-07-04T14:05:52;24.70;56.50
30047;DHT22;16878;52.542;13.426;2022-07-04T14:08:18;24.70;56.70
30047;DHT22;16878;52.542;13.426;2022-07-04T14:10:43;24.70;56.70
30047;DHT22;16878;52.542;13.426;2022-07-04T14:13:09;24.70;56.90
30047;DHT22;16878;52.542;13.426;2022-07-04T14:15:34;24.60;56.90
30047;DHT22;16878;52.542;13.426;2022-07-04T14:18:00;24.60;56.00
30047;DHT22;16878;52.542;13.426;2022-07-04T14:20:25;24.60;56.10
30047;DHT22;16878;52.542;13.426;2022-07-04T14:22:51;24.60;56.10
30047;DHT22;16878;52.542;13.426;2022-07-04T14:25:16;24.60;56.10
30047;DHT22;16878;52.542;13.426;2022-07-04T14:27:42;24.60;56.00
30047;DHT22;16878;52.542;13.426;2022-07-04T14:30:07;24.60;55.90
30047;DHT22;16878;52.542;13.426;2022-07-04T14:32:33;24.50;56.10
30047;DHT22;16878;52.542;13.426;2022-07-04T14:35:00;24.50;56.40
30047;DHT22;16878;52.542;13.426;2022-07-04T14:37:25;24.40;56.00
30047;DHT22;16878;52.542;13.426;2022-07-04T14:39:51;24.40;56.30
30047;DHT22;16878;52.542;13.426;2022-07-04T14:42:17;24.40;56.20
30047;DHT22;16878;52.542;13.426;2022-07-04T14:44:42;24.40;56.00
30047;DHT22;16878;52.542;13.426;2022-07-04T14:47:08;24.40;55.60
30047;DHT22;16878;52.542;13.426;2022-07-04T14:49:34;24.40;55.60
30047;DHT22;16878;52.542;13.426;2022-07-04T14:51:59;24.40;55.50
30047;DHT22;16878;52.542;13.426;2022-07-04T14:54:25;24.40;55.40
30047;DHT22;16878;52.542;13.426;2022-07-04T14:56:51;24.50;55.30
30047;DHT22;16878;52.542;13.426;2022-07-04T14:59:16;24.60;55.30
30047;DHT22;16878;52.542;13.426;2022-07-04T15:01:42;24.60;55.10
30047;DHT22;16878;52.542;13.426;2022-07-04T15:04:07;24.60;55.10
30047;DHT22;16878;52.542;13.426;2022-07-04T15:06:33;24.60;55.50
30047;DHT22;16878;52.542;13.426;2022-07-04T15:08:59;24.60;55.00
30047;DHT22;16878;52.542;13.426;2022-07-04T15:11:24;24.60;55.00
30047;DHT22;16878;52.542;13.426;2022-07-04T15:13:50;24.70;55.20
30047;DHT22;16878;52.542;13.426;2022-07-04T15:16:16;24.70;55.00
30047;DHT22;16878;52.542;13.426;2022-07-04T15:18:41;24.60;54.60
30047;DHT22;16878;52.542;13.426;2022-07-04T15:21:07;24.60;54.80
30047;DHT22;16878;52.542;13.426;2022-07-04T15:23:51;24.60;54.90
30047;DHT22;16878;52.542;13.426;2022-07-04T15:26:35;24.40;55.30
30047;DHT22;16878;52.542;13.426;2022-07-04T15:29:00;24.30;55.40
30047;DHT22;16878;52.542;13.426;2022-07-04T15:31:26;24.30;55.20
30047;DHT22;16878;52.542;13.426;2022-07-04T15:33:52;24.20;55.90
30047;DHT22;16878;52.542;13.426;2022-07-04T15:36:17;24.20;55.50
30047;DHT22;16878;52.542;13.426;2022-07-04T15:38:43;24.20;55.70
30047;DHT22;16878;52.542;13.426;2022-07-04T15:41:09;24.20;55.10
30047;DHT22;16878;52.542;13.426;2022-07-04T15:43:35;24.30;55.20